createdAt,value
2017-09-30T00:00:56.884Z,54.90
2017-09-30T00:03:23.649Z,28.27
2017-09-30T00:05:50.247Z,29.23
2017-09-30T00:08:17.411Z,49.70
2017-09-30T00:10:43.799Z,29.20
2017-09-30T00:13:10.823Z,39.30
2017-09-30T00:15:37.170Z,30.17
2017-09-30T00:18:04.135Z,40.43
2017-09-30T00:20:31.406Z,40.13
2017-09-30T00:22:59.132Z,28.83
2017-09-30T00:25:25.891Z,58.17
2017-09-30T00:27:52.413Z,56.23
2017-09-30T00:30:18.847Z,34.00
2017-09-30T00:32:45.884Z,30.30
2017-09-30T00:35:12.749Z,33.63
2017-09-30T00:37:39.434Z,35.03
2017-09-30T00:40:06.369Z,28.37
2017-09-30T00:42:33.046Z,27.57
2017-09-30T00:44:59.887Z,32.43
2017-09-30T00:47:26.297Z,28.87
2017-09-30T00:49:53.256Z,37.30
2017-09-30T00:52:19.988Z,37.60
2017-09-30T00:54:46.621Z,41.90
2017-09-30T00:57:13.120Z,35.90
2017-09-30T00:59:40.557Z,50.77
2017-09-30T01:02:07.749Z,36.40
2017-09-30T01:04:34.563Z,48.50
2017-09-30T01:07:02.629Z,33.60
2017-09-30T01:09:29.621Z,26.37
2017-09-30T01:11:56.773Z,28.10
2017-09-30T01:14:23.026Z,27.50
2017-09-30T01:16:49.275Z,27.70
2017-09-30T01:19:15.561Z,28.77
2017-09-30T01:21:41.814Z,27.63
2017-09-30T01:24:08.406Z,27.97
2017-09-30T01:26:34.706Z,27.67
2017-09-30T01:29:01.710Z,28.20
2017-09-30T01:31:27.974Z,29.10
2017-09-30T01:33:54.244Z,29.10
2017-09-30T01:36:20.498Z,30.10
2017-09-30T01:38:46.766Z,29.60
2017-09-30T01:41:13.053Z,29.00
2017-09-30T01:43:39.310Z,28.57
2017-09-30T01:46:05.613Z,30.30
2017-09-30T01:48:31.926Z,27.90
2017-09-30T01:50:58.450Z,28.50
2017-09-30T01:53:24.734Z,30.43
2017-09-30T01:55:51.039Z,30.07
2017-09-30T01:58:17.297Z,29.00
2017-09-30T02:00:43.615Z,28.70
2017-09-30T02:03:09.890Z,30.80
2017-09-30T02:05:36.153Z,30.20
2017-09-30T02:08:02.418Z,30.67
2017-09-30T02:10:28.738Z,31.90
2017-09-30T02:12:54.982Z,31.00
2017-09-30T02:15:22.015Z,32.47
2017-09-30T02:17:48.301Z,33.30
2017-09-30T02:20:14.566Z,31.63
2017-09-30T02:22:40.811Z,30.10
2017-09-30T02:25:07.257Z,43.73
2017-09-30T02:27:34.238Z,55.30
2017-09-30T02:30:00.482Z,31.07
2017-09-30T02:32:26.737Z,71.43
2017-09-30T02:34:52.973Z,97.10
2017-09-30T02:37:19.210Z,33.40
2017-09-30T02:39:46.225Z,44.53
2017-09-30T02:42:12.457Z,60.70
2017-09-30T02:44:38.690Z,32.23
2017-09-30T02:47:04.945Z,54.77
2017-09-30T02:49:31.925Z,34.17
2017-09-30T02:51:58.158Z,48.20
2017-09-30T02:54:24.446Z,62.80
2017-09-30T02:56:51.448Z,48.97
2017-09-30T02:59:17.684Z,45.47
2017-09-30T03:01:43.934Z,34.33
2017-09-30T03:04:10.169Z,32.87
2017-09-30T03:06:36.453Z,33.37
2017-09-30T03:09:03.074Z,32.30
2017-09-30T03:11:29.313Z,34.47
2017-09-30T03:13:55.555Z,37.47
2017-09-30T03:16:22.002Z,40.90
2017-09-30T03:18:48.247Z,35.47
2017-09-30T03:21:14.477Z,33.17
2017-09-30T03:23:40.721Z,34.70
2017-09-30T03:26:07.701Z,39.43
2017-09-30T03:28:33.938Z,35.50
2017-09-30T03:31:00.512Z,34.30
2017-09-30T03:33:26.750Z,34.47
2017-09-30T03:35:53.732Z,40.00
2017-09-30T03:38:19.997Z,36.37
2017-09-30T03:40:46.225Z,32.67
2017-09-30T03:43:12.454Z,34.30
2017-09-30T03:45:38.802Z,34.87
2017-09-30T03:48:05.033Z,34.27
2017-09-30T03:50:31.266Z,38.40
2017-09-30T03:52:57.525Z,36.40
2017-09-30T03:55:23.754Z,35.90
2017-09-30T03:57:49.986Z,35.40
2017-09-30T04:00:16.494Z,35.87
2017-09-30T04:02:43.485Z,34.70
2017-09-30T04:05:09.717Z,35.97
2017-09-30T04:07:36.097Z,38.30
2017-09-30T04:10:03.098Z,38.10
2017-09-30T04:12:29.345Z,38.30
2017-09-30T04:14:55.579Z,39.57
2017-09-30T04:17:21.815Z,38.47
2017-09-30T04:19:48.564Z,39.90
2017-09-30T04:22:15.541Z,38.97
2017-09-30T04:24:41.782Z,39.57
2017-09-30T04:27:08.045Z,40.23
2017-09-30T04:29:34.278Z,40.10
2017-09-30T04:32:00.526Z,42.67
2017-09-30T04:34:27.546Z,40.30
2017-09-30T04:36:53.803Z,44.17
2017-09-30T04:39:20.783Z,66.50
2017-09-30T04:41:47.057Z,43.30
2017-09-30T04:44:13.298Z,43.53
2017-09-30T04:46:40.293Z,51.83
2017-09-30T04:49:06.762Z,105.77
2017-09-30T04:51:33.048Z,147.87
2017-09-30T04:53:59.277Z,101.43
2017-09-30T04:56:25.533Z,59.60
2017-09-30T04:58:51.761Z,117.53
2017-09-30T05:01:17.994Z,58.00
2017-09-30T05:03:44.264Z,60.47
2017-09-30T05:06:11.230Z,67.53
2017-09-30T05:08:37.465Z,66.83
2017-09-30T05:11:03.925Z,63.67
2017-09-30T05:13:30.171Z,57.73
2017-09-30T05:15:56.420Z,47.50
2017-09-30T05:18:23.425Z,43.47
2017-09-30T05:20:49.652Z,52.07
2017-09-30T05:23:15.897Z,68.13
2017-09-30T05:25:42.422Z,54.33
2017-09-30T05:28:08.661Z,105.07
2017-09-30T05:30:34.898Z,111.67
2017-09-30T05:33:01.918Z,48.73
2017-09-30T05:35:28.149Z,71.67
2017-09-30T05:37:54.386Z,91.90
2017-09-30T05:40:20.781Z,86.53
2017-09-30T05:42:47.012Z,60.77
2017-09-30T05:45:13.277Z,42.37
2017-09-30T05:47:39.781Z,70.73
2017-09-30T05:50:06.017Z,97.03
2017-09-30T05:52:32.262Z,82.50
2017-09-30T05:54:59.264Z,77.43
2017-09-30T05:57:25.497Z,49.53
2017-09-30T05:59:51.739Z,47.30
2017-09-30T06:02:18.298Z,45.00
2017-09-30T06:04:44.539Z,42.20
2017-09-30T06:07:10.766Z,43.40
2017-09-30T06:09:37.174Z,39.07
2017-09-30T06:12:03.403Z,54.07
2017-09-30T06:14:29.630Z,46.73
2017-09-30T06:16:56.176Z,43.27
2017-09-30T06:19:22.434Z,38.67
2017-09-30T06:21:48.697Z,48.13
2017-09-30T06:24:14.965Z,48.20
2017-09-30T06:26:41.938Z,60.90
2017-09-30T06:29:08.914Z,94.50
2017-09-30T06:31:35.158Z,56.43
2017-09-30T06:34:01.421Z,62.47
2017-09-30T06:36:27.901Z,50.93
2017-09-30T06:38:54.152Z,46.83
2017-09-30T06:41:20.391Z,44.57
2017-09-30T06:43:46.933Z,40.13
2017-09-30T06:46:13.197Z,43.50
2017-09-30T06:48:41.026Z,43.57
2017-09-30T06:51:08.143Z,40.50
2017-09-30T06:53:34.405Z,42.50
2017-09-30T06:56:00.742Z,40.57
2017-09-30T06:58:27.074Z,40.13
2017-09-30T07:00:53.337Z,39.80
2017-09-30T07:03:20.485Z,39.70
2017-09-30T07:05:47.996Z,41.93
2017-09-30T07:08:14.513Z,51.10
2017-09-30T07:10:40.991Z,43.37
2017-09-30T07:13:07.438Z,40.27
2017-09-30T07:15:34.624Z,41.27
2017-09-30T07:18:01.201Z,37.30
2017-09-30T07:20:28.092Z,37.93
2017-09-30T07:22:54.612Z,39.47
2017-09-30T07:25:31.482Z,39.50
2017-09-30T07:27:58.785Z,42.63
2017-09-30T07:30:25.258Z,80.60
2017-09-30T07:32:52.311Z,77.80
2017-09-30T07:35:18.889Z,101.17
2017-09-30T07:37:45.411Z,55.43
2017-09-30T07:40:12.284Z,49.83
2017-09-30T07:42:39.360Z,56.60
2017-09-30T07:45:07.004Z,41.90
2017-09-30T07:47:34.127Z,41.07
2017-09-30T07:50:00.495Z,39.97
2017-09-30T07:52:27.580Z,39.20
2017-09-30T07:54:54.848Z,39.17
2017-09-30T07:57:21.315Z,40.30
2017-09-30T07:59:48.777Z,38.20
2017-09-30T08:02:15.128Z,40.17
2017-09-30T08:04:41.557Z,41.30
2017-09-30T08:07:07.915Z,38.03
2017-09-30T08:09:35.660Z,64.00
2017-09-30T08:12:01.982Z,53.80
2017-09-30T08:14:28.886Z,62.77
2017-09-30T08:16:55.339Z,72.73
2017-09-30T08:19:22.312Z,42.10
2017-09-30T08:21:49.757Z,41.07
2017-09-30T08:24:16.245Z,39.67
2017-09-30T08:26:42.583Z,36.80
2017-09-30T08:29:08.923Z,38.10
2017-09-30T08:31:35.767Z,36.20
2017-09-30T08:34:02.651Z,36.80
2017-09-30T08:36:28.989Z,37.90
2017-09-30T08:38:56.433Z,35.97
2017-09-30T08:41:24.409Z,36.03
2017-09-30T08:43:57.664Z,35.50
2017-09-30T08:46:24.218Z,34.60
2017-09-30T08:48:51.877Z,36.03
2017-09-30T08:51:19.096Z,33.87
2017-09-30T08:53:46.492Z,34.00
2017-09-30T08:56:13.945Z,36.90
2017-09-30T08:58:41.522Z,43.70
2017-09-30T09:01:09.161Z,40.90
2017-09-30T09:03:36.696Z,41.90
2017-09-30T09:06:05.163Z,36.00
2017-09-30T09:08:36.146Z,35.90
2017-09-30T09:11:08.675Z,39.00
2017-09-30T09:13:39.598Z,35.23
2017-09-30T09:16:07.013Z,38.17
2017-09-30T09:18:34.429Z,39.90
2017-09-30T09:21:03.103Z,85.77
2017-09-30T09:23:30.386Z,60.40
2017-09-30T09:26:00.241Z,51.47
2017-09-30T09:28:32.732Z,50.43
2017-09-30T09:31:00.357Z,45.63
2017-09-30T09:33:29.053Z,36.47
2017-09-30T09:35:56.820Z,37.80
2017-09-30T09:38:24.145Z,35.10
2017-09-30T09:40:52.358Z,38.97
2017-09-30T09:43:22.150Z,37.07
2017-09-30T09:45:50.609Z,35.60
2017-09-30T09:48:22.031Z,35.60
2017-09-30T09:50:49.490Z,33.73
2017-09-30T09:53:20.680Z,33.80
2017-09-30T09:55:52.530Z,33.87
2017-09-30T09:58:21.113Z,35.67
2017-09-30T10:00:51.570Z,32.57
2017-09-30T10:03:18.854Z,31.50
2017-09-30T10:05:46.626Z,33.23
2017-09-30T10:08:16.878Z,33.00
2017-09-30T10:10:44.106Z,32.10
2017-09-30T10:13:15.429Z,34.37
2017-09-30T10:15:44.293Z,32.20
2017-09-30T10:18:20.247Z,35.90
2017-09-30T10:20:47.896Z,32.30
2017-09-30T10:23:15.382Z,32.07
2017-09-30T10:25:42.644Z,34.40
2017-09-30T10:28:10.275Z,36.87
2017-09-30T10:30:37.727Z,37.77
2017-09-30T10:33:04.960Z,36.80
2017-09-30T10:35:32.820Z,31.97
2017-09-30T10:38:00.108Z,30.40
2017-09-30T10:40:27.422Z,34.23
2017-09-30T10:42:55.754Z,31.37
2017-09-30T10:45:23.272Z,32.30
2017-09-30T10:47:51.298Z,31.87
2017-09-30T10:50:20.102Z,30.30
2017-09-30T10:52:47.453Z,33.17
2017-09-30T10:55:15.456Z,34.80
2017-09-30T10:57:42.642Z,33.10
2017-09-30T11:00:09.111Z,31.90
2017-09-30T11:02:36.027Z,33.67
2017-09-30T11:05:03.314Z,54.47
2017-09-30T11:07:30.039Z,38.70
2017-09-30T11:09:56.269Z,38.13
2017-09-30T11:12:22.755Z,64.07
2017-09-30T11:14:50.151Z,39.90
2017-09-30T11:17:16.986Z,37.13
2017-09-30T11:19:43.748Z,35.10
2017-09-30T11:22:10.361Z,32.70
2017-09-30T11:24:36.966Z,44.03
2017-09-30T11:27:03.383Z,40.17
2017-09-30T11:29:29.746Z,38.77
2017-09-30T11:31:57.033Z,35.50
2017-09-30T11:34:24.306Z,33.10
2017-09-30T11:36:50.785Z,36.53
2017-09-30T11:39:17.385Z,34.67
2017-09-30T11:41:44.553Z,37.47
2017-09-30T11:44:10.993Z,39.00
2017-09-30T11:46:37.710Z,43.63
2017-09-30T11:49:04.061Z,44.10
2017-09-30T11:51:31.907Z,39.47
2017-09-30T11:53:59.080Z,38.17
2017-09-30T11:56:26.395Z,32.23
2017-09-30T11:58:53.141Z,38.93
2017-09-30T12:01:19.464Z,32.33
2017-09-30T12:03:46.312Z,31.30
2017-09-30T12:06:13.788Z,31.60
2017-09-30T12:08:40.817Z,106.30
2017-09-30T12:11:07.251Z,88.97
2017-09-30T12:13:35.722Z,123.20
2017-09-30T12:16:02.217Z,33.67
2017-09-30T12:18:29.644Z,63.60
2017-09-30T12:20:56.350Z,45.10
2017-09-30T12:23:23.240Z,53.77
2017-09-30T12:25:51.120Z,40.93
2017-09-30T12:28:18.285Z,35.33
2017-09-30T12:30:44.788Z,33.70
2017-09-30T12:33:11.696Z,33.70
2017-09-30T12:35:38.083Z,32.37
2017-09-30T12:38:05.639Z,36.33
2017-09-30T12:40:32.895Z,32.97
2017-09-30T12:42:59.551Z,40.50
2017-09-30T12:45:25.826Z,31.37
2017-09-30T12:47:52.091Z,32.87
2017-09-30T12:50:19.157Z,33.20
2017-09-30T12:52:45.407Z,33.80
2017-09-30T12:55:12.213Z,32.20
2017-09-30T12:57:38.815Z,32.20
2017-09-30T13:00:05.139Z,30.27
2017-09-30T13:02:31.624Z,31.77
2017-09-30T13:04:58.530Z,31.40
2017-09-30T13:07:24.786Z,30.27
2017-09-30T13:09:51.577Z,29.43
2017-09-30T13:12:18.077Z,38.60
2017-09-30T13:14:44.458Z,262.67
2017-09-30T13:17:11.778Z,55.77
2017-09-30T13:19:38.418Z,71.07
2017-09-30T13:22:05.421Z,62.33
2017-09-30T13:24:31.956Z,47.73
2017-09-30T13:26:58.571Z,37.43
2017-09-30T13:29:26.207Z,43.03
2017-09-30T13:31:53.300Z,36.03
2017-09-30T13:34:20.400Z,49.53
2017-09-30T13:36:46.649Z,37.90
2017-09-30T13:39:13.236Z,32.37
2017-09-30T13:41:39.590Z,31.83
2017-09-30T13:44:05.855Z,30.90
2017-09-30T13:46:33.165Z,31.00
2017-09-30T13:49:00.237Z,30.43
2017-09-30T13:51:26.465Z,31.50
2017-09-30T13:53:52.836Z,33.33
2017-09-30T13:56:20.053Z,31.33
2017-09-30T13:58:47.253Z,31.00
2017-09-30T14:01:14.334Z,33.97
2017-09-30T14:03:40.622Z,32.33
2017-09-30T14:06:07.194Z,33.57
2017-09-30T14:08:33.752Z,60.87
2017-09-30T14:11:00.847Z,147.07
2017-09-30T14:13:27.414Z,60.37
2017-09-30T14:15:53.958Z,37.53
2017-09-30T14:18:20.969Z,48.33
2017-09-30T14:20:47.619Z,39.67
2017-09-30T14:23:14.002Z,57.50
2017-09-30T14:25:41.125Z,31.07
2017-09-30T14:28:07.435Z,49.27
2017-09-30T14:30:33.730Z,40.60
2017-09-30T14:33:00.198Z,35.37
2017-09-30T14:35:26.594Z,42.33
2017-09-30T14:37:53.663Z,37.90
2017-09-30T14:40:19.987Z,38.07
2017-09-30T14:42:46.408Z,32.43
2017-09-30T14:45:13.124Z,34.67
2017-09-30T14:47:39.425Z,32.60
2017-09-30T14:50:05.863Z,32.93
2017-09-30T14:52:32.456Z,28.97
2017-09-30T14:54:58.927Z,33.00
2017-09-30T14:57:25.293Z,32.60
2017-09-30T14:59:52.571Z,33.60
2017-09-30T15:02:20.214Z,31.00
2017-09-30T15:04:47.257Z,37.73
2017-09-30T15:07:14.054Z,37.20
2017-09-30T15:09:40.598Z,31.60
2017-09-30T15:12:07.638Z,32.63
2017-09-30T15:14:35.503Z,30.80
2017-09-30T15:17:02.608Z,32.13
2017-09-30T15:19:29.229Z,36.80
2017-09-30T15:21:56.874Z,75.20
2017-09-30T15:24:24.564Z,49.47
2017-09-30T15:26:51.610Z,59.47
2017-09-30T15:29:19.238Z,45.77
2017-09-30T15:31:46.429Z,61.73
2017-09-30T15:34:13.578Z,36.80
2017-09-30T15:36:40.492Z,39.70
2017-09-30T15:39:08.925Z,36.60
2017-09-30T15:41:36.808Z,33.30
2017-09-30T15:44:04.273Z,42.87
2017-09-30T15:46:32.312Z,39.63
2017-09-30T15:48:59.582Z,36.43
2017-09-30T15:51:27.599Z,116.87
2017-09-30T15:53:54.875Z,164.63
2017-09-30T15:56:22.012Z,123.40
2017-09-30T15:58:49.907Z,87.47
2017-09-30T16:01:19.757Z,141.87
2017-09-30T16:03:47.303Z,89.03
2017-09-30T16:06:15.311Z,90.80
2017-09-30T16:08:42.623Z,66.50
2017-09-30T16:11:10.970Z,83.23
2017-09-30T16:13:40.031Z,61.23
2017-09-30T16:16:07.482Z,66.57
2017-09-30T16:18:35.016Z,52.30
2017-09-30T16:21:02.526Z,56.90
2017-09-30T16:23:29.921Z,50.23
2017-09-30T16:25:57.834Z,46.80
2017-09-30T16:28:25.064Z,46.87
2017-09-30T16:30:53.265Z,38.73
2017-09-30T16:33:21.011Z,41.70
2017-09-30T16:35:48.102Z,36.30
2017-09-30T16:38:15.305Z,35.80
2017-09-30T16:40:42.749Z,56.83
2017-09-30T16:43:09.970Z,206.67
2017-09-30T16:45:37.223Z,54.37
2017-09-30T16:48:03.954Z,86.60
2017-09-30T16:50:32.118Z,101.83
2017-09-30T16:52:59.336Z,35.17
2017-09-30T16:55:26.608Z,54.07
2017-09-30T16:57:53.854Z,45.10
2017-09-30T17:00:21.792Z,45.67
2017-09-30T17:02:50.086Z,36.63
2017-09-30T17:05:18.578Z,37.87
2017-09-30T17:07:45.924Z,45.37
2017-09-30T17:10:13.601Z,42.00
2017-09-30T17:12:40.856Z,39.17
2017-09-30T17:15:08.806Z,38.97
2017-09-30T17:17:36.179Z,36.60
2017-09-30T17:20:04.348Z,33.30
2017-09-30T17:22:31.899Z,34.00
2017-09-30T17:24:59.870Z,34.70
2017-09-30T17:27:27.296Z,35.03
2017-09-30T17:29:54.533Z,34.87
2017-09-30T17:32:21.753Z,32.47
2017-09-30T17:34:48.916Z,32.27
2017-09-30T17:37:16.109Z,36.80
2017-09-30T17:39:43.742Z,31.57
2017-09-30T17:42:10.779Z,34.37
2017-09-30T17:44:38.394Z,32.53
2017-09-30T17:47:05.662Z,33.90
2017-09-30T17:49:32.302Z,30.40
2017-09-30T17:52:01.545Z,32.20
2017-09-30T17:54:28.823Z,33.53
2017-09-30T17:56:57.754Z,30.23
2017-09-30T17:59:25.126Z,28.47
2017-09-30T18:01:53.159Z,30.57
2017-09-30T18:04:19.478Z,33.57
2017-09-30T18:06:46.465Z,80.47
2017-09-30T18:09:12.722Z,36.10
2017-09-30T18:11:39.249Z,34.17
2017-09-30T18:14:05.500Z,52.50
2017-09-30T18:16:31.739Z,37.60
2017-09-30T18:18:58.014Z,28.60
2017-09-30T18:21:24.240Z,32.17
2017-09-30T18:23:50.470Z,24.20
2017-09-30T18:26:16.719Z,26.33
2017-09-30T18:28:42.937Z,26.93
2017-09-30T18:31:09.170Z,27.67
2017-09-30T18:33:35.432Z,26.80
2017-09-30T18:36:01.664Z,26.07
2017-09-30T18:38:27.902Z,29.70
2017-09-30T18:40:54.908Z,24.90
2017-09-30T18:43:21.143Z,26.60
2017-09-30T18:45:47.370Z,27.10
2017-09-30T18:48:13.633Z,26.87
2017-09-30T18:50:40.610Z,24.33
2017-09-30T18:53:06.846Z,34.13
2017-09-30T18:55:33.291Z,32.97
2017-09-30T18:57:59.521Z,58.43
2017-09-30T19:00:25.745Z,54.33
2017-09-30T19:02:52.218Z,24.70
2017-09-30T19:05:18.457Z,29.70
2017-09-30T19:07:45.421Z,22.63
2017-09-30T19:10:11.901Z,26.03
2017-09-30T19:12:38.133Z,25.57
2017-09-30T19:15:04.384Z,24.77
2017-09-30T19:17:30.614Z,25.53
2017-09-30T19:19:57.587Z,25.80
2017-09-30T19:22:23.852Z,36.53
2017-09-30T19:24:50.079Z,32.70
2017-09-30T19:27:16.375Z,27.30
2017-09-30T19:29:42.623Z,27.80
2017-09-30T19:32:08.845Z,31.20
2017-09-30T19:34:35.082Z,35.23
2017-09-30T19:37:01.856Z,32.63
2017-09-30T19:39:28.087Z,29.60
2017-09-30T19:41:54.313Z,27.40
2017-09-30T19:44:20.942Z,32.83
2017-09-30T19:46:47.181Z,29.40
2017-09-30T19:49:13.420Z,35.37
2017-09-30T19:51:39.706Z,29.10
2017-09-30T19:54:05.967Z,30.80
2017-09-30T19:56:32.199Z,32.63
2017-09-30T19:58:58.554Z,32.20
2017-09-30T20:01:25.529Z,51.73
2017-09-30T20:03:51.761Z,32.50
2017-09-30T20:06:18.028Z,31.90
2017-09-30T20:08:44.262Z,30.73
2017-09-30T20:11:10.481Z,39.77
2017-09-30T20:13:36.738Z,41.97
2017-09-30T20:16:03.708Z,32.50
2017-09-30T20:18:29.946Z,36.50
2017-09-30T20:20:56.302Z,19.73
2017-09-30T20:23:23.273Z,22.93
2017-09-30T20:25:49.501Z,19.97
2017-09-30T20:28:15.846Z,20.77
2017-09-30T20:30:42.818Z,13.67
2017-09-30T20:33:09.054Z,9.67
2017-09-30T20:35:35.342Z,10.57
2017-09-30T20:38:02.345Z,6.87
2017-09-30T20:40:28.582Z,6.30
2017-09-30T20:42:54.839Z,8.20
2017-09-30T20:45:21.809Z,6.27
2017-09-30T20:47:48.784Z,4.97
2017-09-30T20:50:15.433Z,4.47
2017-09-30T20:52:41.677Z,4.27
2017-09-30T20:55:07.923Z,4.23
2017-09-30T20:57:34.155Z,3.60
2017-09-30T21:00:01.129Z,4.20
2017-09-30T21:02:27.486Z,16.93
2017-09-30T21:04:53.724Z,8.63
2017-09-30T21:07:19.941Z,3.20
2017-09-30T21:09:46.187Z,3.60
2017-09-30T21:12:12.422Z,3.67
2017-09-30T21:14:38.669Z,3.53
2017-09-30T21:17:05.074Z,5.93
2017-09-30T21:19:31.318Z,3.90
2017-09-30T21:21:57.578Z,3.83
2017-09-30T21:24:24.568Z,3.27
2017-09-30T21:26:50.810Z,3.83
2017-09-30T21:29:17.063Z,3.87
2017-09-30T21:31:44.077Z,4.10
2017-09-30T21:34:10.310Z,2.87
2017-09-30T21:36:36.546Z,3.27
2017-09-30T21:39:02.857Z,3.07
2017-09-30T21:41:29.838Z,8.63
2017-09-30T21:43:57.162Z,3.70
2017-09-30T21:46:23.394Z,3.27
2017-09-30T21:48:49.620Z,4.00
2017-09-30T21:51:16.130Z,3.67
2017-09-30T21:53:42.377Z,3.07
2017-09-30T21:56:08.613Z,7.00
2017-09-30T21:58:35.682Z,2.70
2017-09-30T22:01:01.917Z,3.63
2017-09-30T22:03:28.905Z,4.20
2017-09-30T22:05:55.477Z,3.87
2017-09-30T22:08:21.727Z,3.97
2017-09-30T22:10:48.716Z,3.50
2017-09-30T22:13:14.995Z,4.00
2017-09-30T22:15:41.257Z,3.87
2017-09-30T22:18:07.525Z,3.43
2017-09-30T22:20:33.954Z,4.10
2017-09-30T22:23:00.210Z,4.00
2017-09-30T22:25:26.478Z,3.97
2017-09-30T22:27:52.725Z,3.27
2017-09-30T22:30:18.953Z,4.30
2017-09-30T22:32:45.226Z,5.07
2017-09-30T22:35:11.482Z,4.67
2017-09-30T22:37:38.453Z,5.13
2017-09-30T22:40:04.681Z,5.20
2017-09-30T22:42:30.995Z,5.23
2017-09-30T22:44:57.213Z,5.10
2017-09-30T22:47:24.182Z,5.50
2017-09-30T22:49:50.744Z,5.40
2017-09-30T22:52:16.973Z,6.53
2017-09-30T22:54:43.200Z,6.03
2017-09-30T22:57:09.732Z,6.53
2017-09-30T22:59:35.991Z,5.60
2017-09-30T23:02:02.234Z,6.40
2017-09-30T23:04:29.257Z,5.80
2017-09-30T23:06:55.501Z,7.60
2017-09-30T23:09:22.477Z,8.00
2017-09-30T23:11:48.745Z,8.40
2017-09-30T23:14:14.993Z,9.60
2017-09-30T23:16:41.242Z,10.07
2017-09-30T23:19:08.245Z,9.30
2017-09-30T23:21:34.482Z,8.53
2017-09-30T23:24:00.727Z,8.10
2017-09-30T23:26:32.978Z,9.77
2017-09-30T23:28:59.225Z,9.23
2017-09-30T23:31:25.458Z,8.20
